createdAt,value
2023-03-11T00:01:44.344Z,2.13
2023-03-11T00:04:10.894Z,2.18
2023-03-11T00:06:37.624Z,2.20
2023-03-11T00:09:05.178Z,2.21
2023-03-11T00:11:31.840Z,2.28
2023-03-11T00:13:58.351Z,2.26
2023-03-11T00:16:24.911Z,2.18
2023-03-11T00:18:52.666Z,2.27
2023-03-11T00:21:20.313Z,2.27
2023-03-11T00:23:47.304Z,2.21
2023-03-11T00:26:14.535Z,2.14
2023-03-11T00:28:41.121Z,2.23
2023-03-11T00:31:07.698Z,2.20
2023-03-11T00:33:34.185Z,2.20
2023-03-11T00:36:00.747Z,2.07
2023-03-11T00:38:27.259Z,2.16
2023-03-11T00:40:54.096Z,2.18
2023-03-11T00:43:20.634Z,2.17
2023-03-11T00:45:47.270Z,2.17
2023-03-11T00:48:14.948Z,2.13
2023-03-11T00:50:42.210Z,2.07
2023-03-11T00:53:09.842Z,2.07
2023-03-11T00:55:36.592Z,2.03
2023-03-11T01:01:39.760Z,2.07
2023-03-11T01:04:06.605Z,2.05
2023-03-11T01:06:44.860Z,2.00
2023-03-11T01:09:11.962Z,1.96
2023-03-11T01:11:38.560Z,1.95
2023-03-11T01:14:05.150Z,2.06
2023-03-11T01:16:31.666Z,2.07
2023-03-11T01:18:58.138Z,2.05
2023-03-11T01:21:24.642Z,2.03
2023-03-11T01:23:51.174Z,2.03
2023-03-11T01:26:17.810Z,1.96
2023-03-11T01:28:44.300Z,1.95
2023-03-11T01:31:11.193Z,1.99
2023-03-11T01:33:37.799Z,2.03
2023-03-11T01:36:04.793Z,2.00
2023-03-11T01:38:31.307Z,2.07
2023-03-11T01:40:57.832Z,2.02
2023-03-11T01:43:43.075Z,2.10
2023-03-11T01:46:51.636Z,2.03
2023-03-11T01:49:18.858Z,2.10
2023-03-11T01:51:49.870Z,2.03
2023-03-11T01:54:21.743Z,2.00
2023-03-11T01:56:49.570Z,2.03
2023-03-11T01:59:19.641Z,1.92
2023-03-11T02:01:55.463Z,2.03
2023-03-11T02:04:22.037Z,2.02
2023-03-11T02:06:50.657Z,2.05
2023-03-11T02:09:18.016Z,2.00
2023-03-11T02:11:44.513Z,2.02
2023-03-11T02:14:11.099Z,2.05
2023-03-11T02:16:38.221Z,2.05
2023-03-11T02:19:24.931Z,2.16
2023-03-11T02:21:51.725Z,2.18
2023-03-11T02:25:15.459Z,2.13
2023-03-11T02:27:47.549Z,2.11
2023-03-11T02:30:15.302Z,2.07
2023-03-11T02:32:44.593Z,2.06
2023-03-11T02:35:11.233Z,2.00
2023-03-11T02:37:43.589Z,2.02
2023-03-11T02:40:22.082Z,1.96
2023-03-11T02:42:51.612Z,1.97
2023-03-11T02:45:22.025Z,1.99
2023-03-11T02:47:49.491Z,1.90
2023-03-11T02:50:18.301Z,1.93
2023-03-11T02:52:45.130Z,1.92
2023-03-11T02:55:12.292Z,1.87
2023-03-11T02:57:39.195Z,1.92
2023-03-11T03:00:12.315Z,1.85
2023-03-11T03:02:39.034Z,1.76
2023-03-11T03:05:08.250Z,1.65
2023-03-11T03:07:34.775Z,1.73
2023-03-11T03:10:01.299Z,1.65
2023-03-11T03:12:27.906Z,1.60
2023-03-11T03:14:54.475Z,1.56
2023-03-11T03:17:21.087Z,1.55
2023-03-11T03:19:47.664Z,1.49
2023-03-11T03:22:14.241Z,1.41
2023-03-11T03:24:40.995Z,1.37
2023-03-11T03:27:07.465Z,1.44
2023-03-11T03:29:33.949Z,1.34
2023-03-11T03:32:00.572Z,1.32
2023-03-11T03:34:27.202Z,1.21
2023-03-11T03:36:53.653Z,1.32
2023-03-11T03:39:20.482Z,1.37
2023-03-11T03:41:46.947Z,1.31
2023-03-11T03:44:13.493Z,1.17
2023-03-11T03:46:43.078Z,1.27
2023-03-11T03:49:09.718Z,1.21
2023-03-11T03:51:36.243Z,1.07
2023-03-11T03:54:02.892Z,1.18
2023-03-11T03:56:29.382Z,1.17
2023-03-11T03:58:55.908Z,1.17
2023-03-11T04:01:22.384Z,1.08
2023-03-11T04:03:48.984Z,1.04
2023-03-11T04:06:21.932Z,0.94
2023-03-11T04:08:48.621Z,0.89
2023-03-11T04:11:15.083Z,0.93
2023-03-11T04:13:44.645Z,0.90
2023-03-11T04:16:16.864Z,0.90
2023-03-11T04:18:43.478Z,0.83
2023-03-11T04:21:10.092Z,0.83
2023-03-11T04:23:36.753Z,0.77
2023-03-11T04:26:03.869Z,0.70
2023-03-11T04:28:30.403Z,0.72
2023-03-11T04:30:56.866Z,0.66
2023-03-11T04:33:23.451Z,0.59
2023-03-11T04:35:49.984Z,0.66
2023-03-11T04:38:16.684Z,0.70
2023-03-11T04:40:43.430Z,0.72
2023-03-11T04:43:09.931Z,0.66
2023-03-11T04:45:39.469Z,0.63
2023-03-11T04:48:06.264Z,0.65
2023-03-11T04:50:32.840Z,0.63
2023-03-11T04:52:59.407Z,0.58
2023-03-11T04:55:25.994Z,0.53
2023-03-11T04:57:52.530Z,0.45
2023-03-11T05:00:24.721Z,0.37
2023-03-11T05:02:51.459Z,0.31
2023-03-11T05:05:21.297Z,0.28
2023-03-11T05:07:48.287Z,0.26
2023-03-11T05:10:22.169Z,0.25
2023-03-11T05:12:52.122Z,0.25
2023-03-11T05:15:19.398Z,0.25
2023-03-11T05:17:46.190Z,0.31
2023-03-11T05:20:15.468Z,0.32
2023-03-11T05:22:42.459Z,0.35
2023-03-11T05:25:09.467Z,0.34
2023-03-11T05:27:36.013Z,0.41
2023-03-11T05:30:02.859Z,0.44
2023-03-11T05:32:29.395Z,0.42
2023-03-11T05:34:55.868Z,0.38
2023-03-11T05:37:22.331Z,0.39
2023-03-11T05:39:49.042Z,0.31
2023-03-11T05:42:15.755Z,0.26
2023-03-11T05:44:42.425Z,0.25
2023-03-11T05:47:09.052Z,0.29
2023-03-11T05:49:35.661Z,0.26
2023-03-11T05:52:02.321Z,0.22
2023-03-11T05:54:28.897Z,0.18
2023-03-11T05:56:55.933Z,0.19
2023-03-11T05:59:23.329Z,0.14
2023-03-11T06:01:49.925Z,0.15
2023-03-11T06:04:16.551Z,0.21
2023-03-11T06:06:43.357Z,0.14
2023-03-11T06:09:13.843Z,0.18
2023-03-11T06:11:41.068Z,0.35
2023-03-11T06:14:10.135Z,0.28
2023-03-11T06:16:36.662Z,0.38
2023-03-11T06:19:03.208Z,0.38
2023-03-11T06:21:29.731Z,0.32
2023-03-11T06:23:56.209Z,0.39
2023-03-11T06:26:23.806Z,0.49
2023-03-11T06:28:52.002Z,0.52
2023-03-11T06:31:25.388Z,0.63
2023-03-11T06:34:25.789Z,0.68
2023-03-11T06:36:52.280Z,0.77
2023-03-11T06:39:18.768Z,0.83
2023-03-11T06:41:45.248Z,0.97
2023-03-11T06:44:12.050Z,0.91
2023-03-11T06:46:38.597Z,0.91
2023-03-11T06:49:05.163Z,0.94
2023-03-11T06:51:31.660Z,0.90
2023-03-11T06:53:58.395Z,0.90
2023-03-11T06:56:25.588Z,0.90
2023-03-11T06:58:54.043Z,0.84
2023-03-11T07:01:23.296Z,0.96
2023-03-11T07:03:51.073Z,1.17
2023-03-11T07:06:23.388Z,1.26
2023-03-11T07:08:52.490Z,1.45
2023-03-11T07:11:22.592Z,1.93
2023-03-11T07:13:49.685Z,2.00
2023-03-11T07:16:19.464Z,2.44
2023-03-11T07:18:48.070Z,3.33
2023-03-11T07:21:16.912Z,3.22
2023-03-11T07:23:43.697Z,2.89
2023-03-11T07:26:11.763Z,2.78
2023-03-11T07:28:41.198Z,2.72
2023-03-11T07:33:40.648Z,2.81
2023-03-11T07:36:13.055Z,2.74
2023-03-11T07:38:41.362Z,2.81
2023-03-11T07:41:09.934Z,3.09
2023-03-11T07:43:36.406Z,3.28
2023-03-11T07:46:11.266Z,3.43
2023-03-11T07:48:39.717Z,3.36
2023-03-11T07:51:07.472Z,4.26
2023-03-11T07:53:34.730Z,4.88
2023-03-11T07:56:02.248Z,4.74
2023-03-11T07:58:29.165Z,4.25
2023-03-11T08:00:57.308Z,4.09
2023-03-11T08:03:25.010Z,4.52
2023-03-11T08:05:52.286Z,4.60
2023-03-11T08:08:18.887Z,4.39
2023-03-11T08:10:45.380Z,4.58
2023-03-11T08:13:12.015Z,4.76
2023-03-11T08:15:38.678Z,4.61
2023-03-11T08:18:05.467Z,4.68
2023-03-11T08:20:32.362Z,4.88
2023-03-11T08:22:59.141Z,5.91
2023-03-11T08:25:26.571Z,5.31
2023-03-11T08:27:53.011Z,5.94
2023-03-11T08:30:20.460Z,6.21
2023-03-11T08:32:47.022Z,5.95
2023-03-11T08:35:13.572Z,6.00
2023-03-11T08:37:40.245Z,6.42
2023-03-11T08:40:07.804Z,6.68
2023-03-11T08:42:36.208Z,6.99
2023-03-11T08:45:04.060Z,6.66
2023-03-11T08:47:35.165Z,6.45
2023-03-11T08:50:02.356Z,6.28
2023-03-11T08:52:29.124Z,6.83
2023-03-11T08:54:55.657Z,6.93
2023-03-11T08:57:22.115Z,7.11
2023-03-11T08:59:48.616Z,7.65
2023-03-11T09:02:15.195Z,7.89
2023-03-11T09:04:41.832Z,7.54
2023-03-11T09:07:08.609Z,7.55
2023-03-11T09:09:35.133Z,7.04
2023-03-11T09:12:02.930Z,7.54
2023-03-11T09:14:29.430Z,7.35
2023-03-11T09:16:55.909Z,8.45
2023-03-11T09:19:22.442Z,9.16
2023-03-11T09:21:48.885Z,8.36
2023-03-11T09:24:15.433Z,7.92
2023-03-11T09:26:42.010Z,8.47
2023-03-11T09:29:08.898Z,8.60
2023-03-11T09:31:35.446Z,7.83
2023-03-11T09:34:02.225Z,8.38
2023-03-11T09:36:28.787Z,8.20
2023-03-11T09:38:55.360Z,9.43
2023-03-11T09:41:58.493Z,8.16
2023-03-11T09:44:39.892Z,6.96
2023-03-11T09:47:40.921Z,7.47
2023-03-11T09:50:19.865Z,7.92
2023-03-11T09:53:02.254Z,8.57
2023-03-11T09:55:41.493Z,8.24
2023-03-11T09:58:16.049Z,7.89
2023-03-11T10:00:42.659Z,8.10
2023-03-11T10:03:21.931Z,7.45
2023-03-11T10:05:48.567Z,6.89
2023-03-11T10:08:25.532Z,6.72
2023-03-11T10:11:13.828Z,6.31
2023-03-11T10:13:49.120Z,6.07
2023-03-11T10:16:47.653Z,6.44
2023-03-11T10:19:25.372Z,6.15
2023-03-11T10:22:26.385Z,6.52
2023-03-11T10:25:05.064Z,7.99
2023-03-11T10:27:48.297Z,8.95
2023-03-11T10:30:44.569Z,8.37
2023-03-11T10:33:42.527Z,8.19
2023-03-11T10:36:17.419Z,7.35
2023-03-11T10:38:49.157Z,6.89
2023-03-11T10:41:40.221Z,7.18
2023-03-11T10:44:14.055Z,6.80
2023-03-11T10:46:40.763Z,7.34
2023-03-11T10:49:15.753Z,7.03
2023-03-11T10:51:48.925Z,6.92
2023-03-11T10:54:58.982Z,6.56
2023-03-11T10:57:29.443Z,6.80
2023-03-11T11:00:01.874Z,6.79
2023-03-11T11:02:38.791Z,7.42
2023-03-11T11:05:17.523Z,8.68
2023-03-11T11:07:45.823Z,7.94
2023-03-11T11:10:12.336Z,8.71
2023-03-11T11:13:13.244Z,7.52
2023-03-11T11:15:42.957Z,7.03
2023-03-11T11:18:31.161Z,7.55
2023-03-11T11:21:05.755Z,7.68
2023-03-11T11:23:34.461Z,7.45
2023-03-11T11:26:05.927Z,7.30
2023-03-11T11:28:34.167Z,6.94
2023-03-11T11:31:03.958Z,6.72
2023-03-11T11:33:41.453Z,6.68
2023-03-11T11:36:14.830Z,6.32
2023-03-11T11:38:41.378Z,5.69
2023-03-11T11:41:15.241Z,6.08
2023-03-11T11:43:52.394Z,5.73
2023-03-11T11:46:22.016Z,5.52
2023-03-11T11:49:07.401Z,5.84
2023-03-11T11:51:36.497Z,6.11
2023-03-11T11:54:24.042Z,6.21
2023-03-11T11:56:50.650Z,6.20
2023-03-11T11:59:37.608Z,6.17
2023-03-11T12:02:16.766Z,6.25
2023-03-11T12:04:58.768Z,6.18
2023-03-11T12:07:35.908Z,6.65
2023-03-11T12:10:29.247Z,7.23
2023-03-11T12:13:26.258Z,7.31
2023-03-11T12:16:00.413Z,7.87
2023-03-11T12:18:37.428Z,8.26
2023-03-11T12:21:29.412Z,7.93
2023-03-11T12:24:20.472Z,7.72
2023-03-11T12:26:48.507Z,8.10
2023-03-11T12:29:33.829Z,8.16
2023-03-11T12:32:02.229Z,7.66
2023-03-11T12:34:31.378Z,7.79
2023-03-11T12:37:03.392Z,7.92
2023-03-11T12:39:33.706Z,7.58
2023-03-11T12:42:23.025Z,7.52
2023-03-11T12:44:50.540Z,6.83
2023-03-11T12:47:24.693Z,7.30
2023-03-11T12:49:55.019Z,7.34
2023-03-11T12:52:30.110Z,7.01
2023-03-11T12:54:56.561Z,7.50
2023-03-11T12:57:36.827Z,6.93
2023-03-11T13:00:18.317Z,6.83
2023-03-11T13:03:03.096Z,6.50
2023-03-11T13:05:38.469Z,7.01
2023-03-11T13:08:15.767Z,7.34
2023-03-11T13:10:44.531Z,7.89
2023-03-11T13:13:32.457Z,8.31
2023-03-11T13:16:18.970Z,7.58
2023-03-11T13:18:47.820Z,8.19
2023-03-11T13:21:32.566Z,8.13
2023-03-11T13:24:27.990Z,8.17
2023-03-11T13:27:02.255Z,8.62
2023-03-11T13:29:45.232Z,9.08
2023-03-11T13:32:49.005Z,8.06
2023-03-11T13:36:07.368Z,8.88
2023-03-11T13:39:02.314Z,7.90
2023-03-11T13:41:36.045Z,7.25
2023-03-11T13:44:15.089Z,7.52
2023-03-11T13:46:42.920Z,7.31
2023-03-11T13:49:28.229Z,7.32
2023-03-11T13:51:57.385Z,7.82
2023-03-11T13:54:39.110Z,8.30
2023-03-11T13:57:11.892Z,9.22
2023-03-11T13:59:38.500Z,9.98
2023-03-11T14:02:08.079Z,8.98
2023-03-11T14:04:37.563Z,8.99
2023-03-11T14:07:20.059Z,7.99
2023-03-11T14:09:46.700Z,8.31
2023-03-11T14:12:16.514Z,7.66
2023-03-11T14:14:54.041Z,7.21
2023-03-11T14:17:21.632Z,7.28
2023-03-11T14:20:11.949Z,7.27
2023-03-11T14:22:38.672Z,7.03
2023-03-11T14:25:08.798Z,7.56
2023-03-11T14:27:37.937Z,7.34
2023-03-11T14:30:06.021Z,7.38
2023-03-11T14:32:37.815Z,7.59
2023-03-11T14:35:20.477Z,7.89
2023-03-11T14:37:47.299Z,8.27
2023-03-11T14:40:28.259Z,8.60
2023-03-11T14:43:01.670Z,8.07
2023-03-11T14:45:36.446Z,7.48
2023-03-11T14:48:28.375Z,6.93
2023-03-11T14:50:57.310Z,6.49
2023-03-11T14:53:29.459Z,6.97
2023-03-11T14:55:59.447Z,6.90
2023-03-11T14:58:43.982Z,6.71
2023-03-11T15:01:28.379Z,6.82
2023-03-11T15:04:06.875Z,6.99
2023-03-11T15:06:34.675Z,6.84
2023-03-11T15:09:12.218Z,6.66
2023-03-11T15:11:52.329Z,6.80
2023-03-11T15:14:24.691Z,6.89
2023-03-11T15:16:52.550Z,8.07
2023-03-11T15:19:28.187Z,7.14
2023-03-11T15:21:58.635Z,7.50
2023-03-11T15:24:31.419Z,7.38
2023-03-11T15:27:02.307Z,7.24
2023-03-11T15:29:30.203Z,7.47
2023-03-11T15:31:57.396Z,7.05
2023-03-11T15:34:27.618Z,7.15
2023-03-11T15:36:57.114Z,7.40
2023-03-11T15:39:33.121Z,7.40
2023-03-11T15:42:02.158Z,7.55
2023-03-11T15:44:41.096Z,7.93
2023-03-11T15:47:16.882Z,8.45
2023-03-11T15:49:43.568Z,9.22
2023-03-11T15:52:10.605Z,9.65
2023-03-11T15:54:37.622Z,8.83
2023-03-11T15:57:12.909Z,8.68
2023-03-11T15:59:41.286Z,9.39
2023-03-11T16:02:23.762Z,9.32
2023-03-11T16:04:51.145Z,9.13
2023-03-11T16:07:36.464Z,8.98
2023-03-11T16:10:06.479Z,9.81
2023-03-11T16:12:33.178Z,9.23
2023-03-11T16:14:59.927Z,9.36
2023-03-11T16:17:28.661Z,9.02
2023-03-11T16:20:00.642Z,8.91
2023-03-11T16:22:35.276Z,8.96
2023-03-11T16:25:03.294Z,8.61
2023-03-11T16:27:30.620Z,8.69
2023-03-11T16:29:57.236Z,9.11
2023-03-11T16:32:24.681Z,8.96
2023-03-11T16:34:51.315Z,9.34
2023-03-11T16:37:25.420Z,9.23
2023-03-11T16:39:52.765Z,8.96
2023-03-11T16:42:25.426Z,8.62
2023-03-11T16:44:53.264Z,8.79
2023-03-11T16:47:19.831Z,8.69
2023-03-11T16:49:46.392Z,8.64
2023-03-11T16:52:12.877Z,8.85
2023-03-11T16:54:39.441Z,8.60
2023-03-11T16:57:05.938Z,7.97
2023-03-11T16:59:32.419Z,8.02
2023-03-11T17:01:59.512Z,7.24
2023-03-11T17:04:26.331Z,6.72
2023-03-11T17:06:52.939Z,6.44
2023-03-11T17:09:23.900Z,6.35
2023-03-11T17:11:50.879Z,6.20
2023-03-11T17:14:17.895Z,6.11
2023-03-11T17:16:45.274Z,6.04
2023-03-11T17:19:11.921Z,5.97
2023-03-11T17:21:38.417Z,5.93
2023-03-11T17:24:05.319Z,5.73
2023-03-11T17:26:31.902Z,5.57
2023-03-11T17:28:59.070Z,5.49
2023-03-11T17:31:25.602Z,5.36
2023-03-11T17:33:52.106Z,5.26
2023-03-11T17:36:19.093Z,5.21
2023-03-11T17:38:47.358Z,5.26
2023-03-11T17:41:16.190Z,5.05
2023-03-11T17:43:43.822Z,5.03
2023-03-11T17:46:15.509Z,4.87
2023-03-11T17:48:47.535Z,4.76
2023-03-11T17:51:17.186Z,4.68
2023-03-11T17:53:49.375Z,4.66
2023-03-11T17:56:18.352Z,4.58
2023-03-11T17:58:44.985Z,4.36
2023-03-11T18:01:15.395Z,4.37
2023-03-11T18:03:43.555Z,4.35
2023-03-11T18:06:12.232Z,4.09
2023-03-11T18:08:38.714Z,4.03
2023-03-11T18:11:08.851Z,3.95
2023-03-11T18:13:36.502Z,3.88
2023-03-11T18:16:04.828Z,3.87
2023-03-11T18:18:33.348Z,3.84
2023-03-11T18:21:04.984Z,3.84
2023-03-11T18:23:34.972Z,4.03
2023-03-11T18:26:03.969Z,3.89
2023-03-11T18:28:30.830Z,3.75
2023-03-11T18:30:59.167Z,3.64
2023-03-11T18:33:25.875Z,3.57
2023-03-11T18:35:53.342Z,3.50
2023-03-11T18:38:20.096Z,3.38
2023-03-11T18:40:46.923Z,3.43
2023-03-11T18:43:14.655Z,3.37
2023-03-11T18:45:41.426Z,3.36
2023-03-11T18:48:08.140Z,3.33
2023-03-11T18:50:34.665Z,3.31
2023-03-11T18:53:01.965Z,3.17
2023-03-11T18:58:39.989Z,2.99
2023-03-11T19:01:17.766Z,2.84
2023-03-11T19:03:45.135Z,2.85
2023-03-11T19:06:13.252Z,2.77
2023-03-11T19:08:40.635Z,2.71
2023-03-11T19:11:08.229Z,2.66
2023-03-11T19:13:46.309Z,2.79
2023-03-11T19:16:14.651Z,2.79
2023-03-11T19:18:41.457Z,2.54
2023-03-11T19:21:08.978Z,2.58
2023-03-11T19:23:35.492Z,2.47
2023-03-11T19:26:03.772Z,2.37
2023-03-11T19:28:30.579Z,2.34
2023-03-11T19:30:58.884Z,2.49
2023-03-11T19:33:26.037Z,2.28
2023-03-11T19:35:57.117Z,2.26
2023-03-11T19:38:24.405Z,2.23
2023-03-11T19:40:59.778Z,2.13
2023-03-11T19:43:26.713Z,1.93
2023-03-11T19:45:53.313Z,1.80
2023-03-11T19:48:20.337Z,1.73
2023-03-11T19:50:52.403Z,1.75
2023-03-11T19:53:21.825Z,1.80
2023-03-11T19:55:51.750Z,1.95
2023-03-11T19:58:18.527Z,1.93
2023-03-11T20:00:46.011Z,1.95
2023-03-11T20:03:14.091Z,1.80
2023-03-11T20:05:43.132Z,1.68
2023-03-11T20:08:11.521Z,1.60
2023-03-11T20:10:40.159Z,1.51
2023-03-11T20:13:07.555Z,1.49
2023-03-11T20:15:34.127Z,1.41
2023-03-11T20:18:01.239Z,1.49
2023-03-11T20:20:29.256Z,1.56
2023-03-11T20:22:56.057Z,1.52
2023-03-11T20:25:24.898Z,1.56
2023-03-11T20:27:52.251Z,1.34
2023-03-11T20:30:20.333Z,1.39
2023-03-11T20:32:47.828Z,1.31
2023-03-11T20:35:15.426Z,1.24
2023-03-11T20:37:43.477Z,1.14
2023-03-11T20:40:13.096Z,1.14
2023-03-11T20:42:40.368Z,1.17
2023-03-11T20:45:07.383Z,1.13
2023-03-11T20:47:33.985Z,1.03
2023-03-11T20:50:00.703Z,0.99
2023-03-11T20:52:32.354Z,1.04
2023-03-11T20:54:58.969Z,0.96
2023-03-11T20:57:25.655Z,1.05
2023-03-11T20:59:52.545Z,1.07
2023-03-11T21:02:21.032Z,1.08
2023-03-11T21:04:48.034Z,0.99
2023-03-11T21:07:14.796Z,1.04
2023-03-11T21:09:41.533Z,0.91
2023-03-11T21:12:10.987Z,0.96
2023-03-11T21:14:46.477Z,0.84
2023-03-11T21:17:13.366Z,0.87
2023-03-11T21:19:40.222Z,0.84
2023-03-11T21:22:06.938Z,0.76
2023-03-11T21:24:33.504Z,0.79
2023-03-11T21:27:00.134Z,0.59
2023-03-11T21:29:26.691Z,0.59
2023-03-11T21:31:53.379Z,0.50
2023-03-11T21:34:19.979Z,0.73
2023-03-11T21:36:46.540Z,0.77
2023-03-11T21:39:14.609Z,0.83
2023-03-11T21:41:41.375Z,0.70
2023-03-11T21:44:08.024Z,0.72
2023-03-11T21:46:35.126Z,0.65
2023-03-11T21:49:02.177Z,0.70
2023-03-11T21:51:29.235Z,0.56
2023-03-11T21:53:56.715Z,0.66
2023-03-11T21:56:23.475Z,0.49
2023-03-11T21:58:50.022Z,0.59
2023-03-11T22:01:16.674Z,0.65
2023-03-11T22:03:44.238Z,0.49
2023-03-11T22:06:12.752Z,0.55
2023-03-11T22:08:39.910Z,0.58
2023-03-11T22:11:13.974Z,0.50
2023-03-11T22:13:40.726Z,0.53
2023-03-11T22:16:07.998Z,0.49
2023-03-11T22:18:35.325Z,0.58
2023-03-11T22:21:02.469Z,0.68
2023-03-11T22:23:29.122Z,0.69
2023-03-11T22:25:55.804Z,0.63
2023-03-11T22:28:22.508Z,0.75
2023-03-11T22:30:49.181Z,0.73
2023-03-11T22:33:15.742Z,0.62
2023-03-11T22:35:50.217Z,0.80
2023-03-11T22:38:16.991Z,0.89
2023-03-11T22:40:43.586Z,0.97
2023-03-11T22:43:10.059Z,0.84
2023-03-11T22:45:36.618Z,0.81
2023-03-11T22:48:03.955Z,1.00
2023-03-11T22:50:30.559Z,0.93
2023-03-11T22:52:57.209Z,1.01
2023-03-11T22:55:24.194Z,1.11
2023-03-11T22:57:51.266Z,1.13
2023-03-11T23:00:21.521Z,0.99
2023-03-11T23:02:52.181Z,0.99
2023-03-11T23:05:19.083Z,1.07
2023-03-11T23:07:45.885Z,1.07
2023-03-11T23:10:14.781Z,1.04
2023-03-11T23:12:41.735Z,1.05
2023-03-11T23:15:12.077Z,1.04
2023-03-11T23:17:38.815Z,1.11
2023-03-11T23:20:07.026Z,1.07
2023-03-11T23:22:38.742Z,1.00
2023-03-11T23:25:08.750Z,1.05
2023-03-11T23:27:35.417Z,1.03
2023-03-11T23:30:02.028Z,1.07
2023-03-11T23:32:28.879Z,1.04
2023-03-11T23:34:55.500Z,1.14
2023-03-11T23:37:22.149Z,1.07
2023-03-11T23:39:48.903Z,1.17
2023-03-11T23:42:25.570Z,1.23
2023-03-11T23:44:53.545Z,1.18
2023-03-11T23:47:20.740Z,1.21
2023-03-11T23:49:47.417Z,1.26
2023-03-11T23:52:14.018Z,1.28
2023-03-11T23:54:40.555Z,1.27
2023-03-11T23:57:07.167Z,1.24
2023-03-11T23:59:33.781Z,1.32
